Bryan, OH (43506)

8:44 PM EST on January 24, 2017 (GMT -0500)
| | Change Station
Active Advisory: Flood Warning

Elev -9999 ft 0.00 °N, 0.00 °E | Updated 3 minutes ago

Overcast
Overcast
°F
Feels Like °F
N
Wind Variable Wind from North
Gusts mph

Today
High -- | Low -- °F
--% Chance of Precip.
Yesterday
High -- | Low -- °F
Precip. -- in
Pressure 29.86 in
Visibility 10.0 miles
Clouds Overcast 2100 ft
Dew Point Not available.
Humidity Not available.
Rainfall --
Snow Depth Not available.
7:56 AM 5:44 PM
Waning Crescent, 9% visible
METAR KDFI 250053Z AUTO 00000KT 10SM OVC021 03/01 A2984 RMK AO2 SLP109 T00330011
Pressure 29.86 in
Visibility 10.0 miles
Clouds Overcast 2100 ft
Dew Point Not available.
Humidity Not available.
Rainfall --
Snow Depth Not available.
7:56 AM 5:44 PM
Waning Crescent, 9% visible
METAR KDFI 250053Z AUTO 00000KT 10SM OVC021 03/01 A2984 RMK AO2 SLP109 T00330011

Get Your Daily Forecast Email!

Thanks for signing up!

Be on the lookout for a verification email in your inbox.

You'll start receiving the daily forecast at 8 AM.

×

10-Day Weather Forecast

Almanac

Astronomy

Jan. 24, 2017 Rise Set
Actual Time
Civil Twilight
Nautical Twilight
Astronomical Twilight
Moon
Length of Visible Light
Length of Day
Tomorrow will be .
, % of the Moon is Illuminated

Today's Extremes

State Highs State Lows

Community

WunderPhotos

Upload Photos

1,962,540 photos uploaded!

WunderBlog® & News

Nearby

Air Quality

  Air Quality AQ Index Pollutant
Not available.

Snow Depth

Station Depth Elevation

Earthquake Activity

City Distance Mag. Time & Date
Minimum magnitude displayed is 2.5.

Coastal Water Temperatures

Place Temperature

Stations

Nearby Weather Stations

Station Location Temp. Windchill Dew Point Humidity Wind Precip. Elev Updated Type
                   

Watches & Warnings

Flood Warning
Issued: 10:22 AM EST Jan. 24, 2017 – National Weather Service

the Flood Warning has been extended for
the Tiffin River near Stryker
* until late Thursday night.
* At 10 am Tuesday the stage was 11.5 feet and steady.
* Minor flooding is occurring and minor flooding is forecast.
* Flood stage is 11.0 feet.
* Forecast... the river will fall below the 11.0 foot flood stage
around 1 am Thursday January 26.
* At 12.0 feet... portions of State Route 66 flood north of Archbold.
* This crest compares to a previous crest of 11.9 feet which occurred
on Jun 1 2015.


Lat... Lon 4130 8444 4149 8446 4159 8439 4159 8429
      4130 8438